createdAt,value
2023-05-09T00:00:39.865Z,11.87
2023-05-09T00:03:07.746Z,11.74
2023-05-09T00:05:35.634Z,11.90
2023-05-09T00:08:03.706Z,11.82
2023-05-09T00:10:31.576Z,11.83
2023-05-09T00:13:00.477Z,11.80
2023-05-09T00:15:28.924Z,11.80
2023-05-09T00:17:56.800Z,11.68
2023-05-09T00:20:25.165Z,11.72
2023-05-09T00:22:52.998Z,11.76
2023-05-09T00:25:20.835Z,11.75
2023-05-09T00:27:48.677Z,11.79
2023-05-09T00:30:16.492Z,11.63
2023-05-09T00:32:45.218Z,11.61
2023-05-09T00:35:13.492Z,11.62
2023-05-09T00:37:41.551Z,11.60
2023-05-09T00:40:09.790Z,11.57
2023-05-09T00:42:37.995Z,11.57
2023-05-09T00:45:07.147Z,11.56
2023-05-09T00:47:35.620Z,11.43
2023-05-09T00:50:03.862Z,11.56
2023-05-09T00:52:33.306Z,11.50
2023-05-09T00:55:02.604Z,11.53
2023-05-09T00:57:30.628Z,11.49
2023-05-09T00:59:58.675Z,11.45
2023-05-09T01:02:27.437Z,11.43
2023-05-09T01:04:56.039Z,11.41
2023-05-09T01:07:42.184Z,11.37
2023-05-09T01:10:26.539Z,11.28
2023-05-09T01:13:16.118Z,11.33
2023-05-09T01:15:54.163Z,11.19
2023-05-09T01:18:34.806Z,11.16
2023-05-09T01:21:24.178Z,11.27
2023-05-09T01:23:57.639Z,11.29
2023-05-09T01:26:45.859Z,11.39
2023-05-09T01:29:38.035Z,11.15
2023-05-09T01:32:15.676Z,11.25
2023-05-09T01:34:45.210Z,11.33
2023-05-09T01:37:16.395Z,11.27
2023-05-09T01:39:49.921Z,11.36
2023-05-09T01:42:21.810Z,11.20
2023-05-09T01:44:49.994Z,11.19
2023-05-09T01:47:20.002Z,11.34
2023-05-09T01:49:49.506Z,11.20
2023-05-09T01:52:20.126Z,11.24
2023-05-09T01:54:50.896Z,11.04
2023-05-09T01:57:21.919Z,10.92
2023-05-09T01:59:51.565Z,10.86
2023-05-09T02:02:20.456Z,10.79
2023-05-09T02:04:50.154Z,10.86
2023-05-09T02:07:18.555Z,10.90
2023-05-09T02:09:48.428Z,10.84
2023-05-09T02:12:16.939Z,10.81
2023-05-09T02:14:44.858Z,10.95
2023-05-09T02:17:16.980Z,10.88
2023-05-09T02:19:45.065Z,10.78
2023-05-09T02:22:15.092Z,10.71
2023-05-09T02:24:45.155Z,10.95
2023-05-09T02:27:14.808Z,10.73
2023-05-09T02:29:48.324Z,10.73
2023-05-09T02:32:20.950Z,10.74
2023-05-09T02:34:51.345Z,10.63
2023-05-09T02:37:21.007Z,10.62
2023-05-09T02:39:49.041Z,10.57
2023-05-09T02:42:22.413Z,10.64
2023-05-09T02:44:51.065Z,10.59
2023-05-09T02:47:18.931Z,10.43
2023-05-09T02:49:47.202Z,10.33
2023-05-09T02:52:16.122Z,10.26
2023-05-09T02:54:45.613Z,10.23
2023-05-09T02:57:13.468Z,10.29
2023-05-09T02:59:41.353Z,10.06
2023-05-09T03:02:09.226Z,10.01
2023-05-09T03:04:37.579Z,10.01
2023-05-09T03:07:06.263Z,9.87
2023-05-09T03:09:34.838Z,9.95
2023-05-09T03:12:03.872Z,9.83
2023-05-09T03:14:31.796Z,9.82
2023-05-09T03:17:00.297Z,9.75
2023-05-09T03:19:33.840Z,9.69
2023-05-09T03:22:01.717Z,9.73
2023-05-09T03:24:32.025Z,9.70
2023-05-09T03:26:59.858Z,9.69
2023-05-09T03:29:27.985Z,9.64
2023-05-09T03:31:55.928Z,9.59
2023-05-09T03:34:23.891Z,9.70
2023-05-09T03:36:51.703Z,9.51
2023-05-09T03:39:20.570Z,9.55
2023-05-09T03:41:51.456Z,9.48
2023-05-09T03:44:19.311Z,9.45
2023-05-09T03:46:47.233Z,9.51
2023-05-09T03:49:15.704Z,9.42
2023-05-09T03:51:44.509Z,9.55
2023-05-09T03:54:15.989Z,9.45
2023-05-09T03:56:43.821Z,9.49
2023-05-09T03:59:11.726Z,9.51
2023-05-09T04:01:41.997Z,9.50
2023-05-09T04:04:09.964Z,9.37
2023-05-09T04:06:38.127Z,9.42
2023-05-09T04:09:08.214Z,9.30
2023-05-09T04:11:36.071Z,9.29
2023-05-09T04:14:07.324Z,9.30
2023-05-09T04:16:37.117Z,9.29
2023-05-09T04:19:05.068Z,9.30
2023-05-09T04:21:32.958Z,9.28
2023-05-09T04:24:03.042Z,9.23
2023-05-09T04:26:38.602Z,9.22
2023-05-09T04:29:09.423Z,9.27
2023-05-09T04:31:37.606Z,9.28
2023-05-09T04:34:07.267Z,9.30
2023-05-09T04:36:36.928Z,9.35
2023-05-09T04:39:05.349Z,9.31
2023-05-09T04:41:35.147Z,9.36
2023-05-09T04:44:03.339Z,9.28
2023-05-09T04:46:31.369Z,9.29
2023-05-09T04:48:59.384Z,9.31
2023-05-09T04:51:27.551Z,9.36
2023-05-09T04:53:55.690Z,9.23
2023-05-09T04:56:29.011Z,9.32
2023-05-09T04:58:56.891Z,9.29
2023-05-09T05:01:25.066Z,9.20
2023-05-09T05:03:53.246Z,9.21
2023-05-09T05:06:21.148Z,9.17
2023-05-09T05:08:49.002Z,9.14
2023-05-09T05:11:18.132Z,9.23
2023-05-09T05:13:46.546Z,9.20
2023-05-09T05:16:14.641Z,9.25
2023-05-09T05:18:42.987Z,9.20
2023-05-09T05:21:11.108Z,9.29
2023-05-09T05:23:39.100Z,9.42
2023-05-09T05:26:07.096Z,9.26
2023-05-09T05:28:36.592Z,9.40
2023-05-09T05:31:05.387Z,9.42
2023-05-09T05:33:33.761Z,9.39
2023-05-09T05:36:03.014Z,9.57
2023-05-09T05:38:31.165Z,9.67
2023-05-09T05:41:00.386Z,9.79
2023-05-09T05:43:29.578Z,9.65
2023-05-09T05:45:57.854Z,9.68
2023-05-09T05:48:26.874Z,10.27
2023-05-09T05:50:55.466Z,10.29
2023-05-09T05:53:27.120Z,10.35
2023-05-09T05:55:55.445Z,10.35
2023-05-09T05:58:24.589Z,10.14
2023-05-09T06:00:52.960Z,10.26
2023-05-09T06:03:21.237Z,10.10
2023-05-09T06:05:57.838Z,10.22
2023-05-09T06:08:25.821Z,10.20
2023-05-09T06:10:53.701Z,10.11
2023-05-09T06:13:21.727Z,10.17
2023-05-09T06:16:07.780Z,10.21
2023-05-09T06:18:40.246Z,10.25
2023-05-09T06:21:08.195Z,10.28
2023-05-09T06:23:38.030Z,10.33
2023-05-09T06:26:08.430Z,10.42
2023-05-09T06:28:37.224Z,10.28
2023-05-09T06:31:05.110Z,10.12
2023-05-09T06:33:33.243Z,10.30
2023-05-09T06:36:01.080Z,10.41
2023-05-09T06:38:28.969Z,10.38
2023-05-09T06:40:57.332Z,10.48
2023-05-09T06:43:25.611Z,10.68
2023-05-09T06:45:53.764Z,10.81
2023-05-09T06:48:23.871Z,10.66
2023-05-09T06:50:51.902Z,10.63
2023-05-09T06:53:19.734Z,10.59
2023-05-09T06:55:47.911Z,10.79
2023-05-09T06:58:15.748Z,10.86
2023-05-09T07:00:43.640Z,10.87
2023-05-09T07:03:11.747Z,10.79
2023-05-09T07:05:39.694Z,11.04
2023-05-09T07:08:07.749Z,10.90
2023-05-09T07:10:36.047Z,10.85
2023-05-09T07:13:03.924Z,11.04
2023-05-09T07:15:41.521Z,10.98
2023-05-09T07:18:10.441Z,11.01
2023-05-09T07:20:38.337Z,11.14
2023-05-09T07:23:06.353Z,11.12
2023-05-09T07:25:34.354Z,11.24
2023-05-09T07:28:02.200Z,11.21
2023-05-09T07:30:30.249Z,11.22
2023-05-09T07:32:58.209Z,11.37
2023-05-09T07:35:26.427Z,11.42
2023-05-09T07:37:54.703Z,11.44
2023-05-09T07:40:22.791Z,11.68
2023-05-09T07:42:51.605Z,11.70
2023-05-09T07:45:22.002Z,11.62
2023-05-09T07:47:51.531Z,11.92
2023-05-09T07:50:19.505Z,11.98
2023-05-09T07:52:47.321Z,12.12
2023-05-09T07:55:15.440Z,12.07
2023-05-09T07:57:43.412Z,12.07
2023-05-09T08:00:11.863Z,12.35
2023-05-09T08:02:43.399Z,12.20
2023-05-09T08:05:14.291Z,12.19
2023-05-09T08:07:42.314Z,12.51
2023-05-09T08:10:10.402Z,12.37
2023-05-09T08:12:38.475Z,12.51
2023-05-09T08:15:07.151Z,12.46
2023-05-09T08:17:35.423Z,12.50
2023-05-09T08:20:05.588Z,12.66
2023-05-09T08:22:33.764Z,12.87
2023-05-09T08:25:01.621Z,12.70
2023-05-09T08:27:29.515Z,12.70
2023-05-09T08:29:57.839Z,12.96
2023-05-09T08:32:26.477Z,13.04
2023-05-09T08:34:54.645Z,12.80
2023-05-09T08:37:23.037Z,13.04
2023-05-09T08:39:51.506Z,13.01
2023-05-09T08:42:25.500Z,12.93
2023-05-09T08:44:54.145Z,13.20
2023-05-09T08:47:22.980Z,13.07
2023-05-09T08:49:51.445Z,13.26
2023-05-09T08:52:20.317Z,13.12
2023-05-09T08:54:48.296Z,13.43
2023-05-09T08:57:16.344Z,13.43
2023-05-09T08:59:45.528Z,13.45
2023-05-09T09:02:14.683Z,13.73
2023-05-09T09:04:42.965Z,13.59
2023-05-09T09:07:12.465Z,13.64
2023-05-09T09:09:45.786Z,13.73
2023-05-09T09:12:15.922Z,13.80
2023-05-09T09:14:50.353Z,14.21
2023-05-09T09:17:20.910Z,14.21
2023-05-09T09:19:50.374Z,14.26
2023-05-09T09:22:20.061Z,14.22
2023-05-09T09:24:47.984Z,13.95
2023-05-09T09:27:15.855Z,14.31
2023-05-09T09:29:43.694Z,14.34
2023-05-09T09:32:11.568Z,14.31
2023-05-09T09:34:39.534Z,14.36
2023-05-09T09:37:07.985Z,14.29
2023-05-09T09:39:36.010Z,14.77
2023-05-09T09:42:11.866Z,14.77
2023-05-09T09:44:39.927Z,14.64
2023-05-09T09:47:10.639Z,14.72
2023-05-09T09:49:46.945Z,14.82
2023-05-09T09:52:23.203Z,14.91
2023-05-09T09:54:51.073Z,14.87
2023-05-09T09:57:36.271Z,15.19
2023-05-09T10:00:06.146Z,15.21
2023-05-09T10:02:34.337Z,14.98
2023-05-09T10:05:08.587Z,15.55
2023-05-09T10:07:36.588Z,15.31
2023-05-09T10:10:06.196Z,15.03
2023-05-09T10:12:36.849Z,15.32
2023-05-09T10:15:07.621Z,15.46
2023-05-09T10:17:35.810Z,15.65
2023-05-09T10:20:06.230Z,15.72
2023-05-09T10:22:35.075Z,15.75
2023-05-09T10:25:06.632Z,15.84
2023-05-09T10:27:36.659Z,15.98
2023-05-09T10:30:10.408Z,16.22
2023-05-09T10:32:56.192Z,16.41
2023-05-09T10:35:31.280Z,16.26
2023-05-09T10:38:01.912Z,16.60
2023-05-09T10:40:32.046Z,16.44
2023-05-09T10:42:59.943Z,16.25
2023-05-09T10:45:28.256Z,16.55
2023-05-09T10:47:56.973Z,16.86
2023-05-09T10:50:26.090Z,16.54
2023-05-09T10:53:03.814Z,16.80
2023-05-09T10:55:39.337Z,16.81
2023-05-09T10:58:30.068Z,17.06
2023-05-09T11:01:00.299Z,17.05
2023-05-09T11:03:30.621Z,17.16
2023-05-09T11:05:58.923Z,17.05
2023-05-09T11:08:33.229Z,17.03
2023-05-09T11:11:07.458Z,17.16
2023-05-09T11:13:40.186Z,17.22
2023-05-09T11:16:09.662Z,17.38
2023-05-09T11:18:51.985Z,17.69
2023-05-09T11:21:20.979Z,17.24
2023-05-09T11:23:49.871Z,17.16
2023-05-09T11:26:22.405Z,17.58
2023-05-09T11:28:54.212Z,17.54
2023-05-09T11:31:22.474Z,17.78
2023-05-09T11:33:56.345Z,18.03
2023-05-09T11:36:29.351Z,18.12
2023-05-09T11:39:24.637Z,18.45
2023-05-09T11:41:53.529Z,18.72
2023-05-09T11:44:21.699Z,18.75
2023-05-09T11:46:49.769Z,19.77
2023-05-09T11:49:19.692Z,20.84
2023-05-09T11:51:47.561Z,19.97
2023-05-09T11:54:16.299Z,19.42
2023-05-09T11:56:45.144Z,19.14
2023-05-09T11:59:14.745Z,19.35
2023-05-09T12:01:42.675Z,19.24
2023-05-09T12:04:10.679Z,18.73
2023-05-09T12:06:38.581Z,18.69
2023-05-09T12:09:06.674Z,18.93
2023-05-09T12:11:36.721Z,18.95
2023-05-09T12:14:05.447Z,18.86
2023-05-09T12:16:33.395Z,18.58
2023-05-09T12:19:01.249Z,18.92
2023-05-09T12:21:29.708Z,18.91
2023-05-09T12:23:57.708Z,18.71
2023-05-09T12:26:25.747Z,18.96
2023-05-09T12:28:54.295Z,18.61
2023-05-09T12:31:22.714Z,18.86
2023-05-09T12:33:50.880Z,18.87
2023-05-09T12:36:18.796Z,18.76
2023-05-09T12:38:56.393Z,18.85
2023-05-09T12:43:56.013Z,18.86
2023-05-09T12:46:24.374Z,18.97
2023-05-09T12:48:52.357Z,19.25
2023-05-09T12:51:22.039Z,19.19
2023-05-09T12:53:50.547Z,19.01
2023-05-09T12:56:20.358Z,19.45
2023-05-09T12:58:52.468Z,19.04
2023-05-09T13:01:23.093Z,19.22
2023-05-09T13:03:52.666Z,19.40
2023-05-09T13:06:21.143Z,19.52
2023-05-09T13:09:05.768Z,19.70
2023-05-09T13:11:33.719Z,19.84
2023-05-09T13:14:04.147Z,19.68
2023-05-09T13:16:32.202Z,19.27
2023-05-09T13:19:01.621Z,19.19
2023-05-09T13:21:29.557Z,19.58
2023-05-09T13:23:57.420Z,19.84
2023-05-09T13:26:25.948Z,19.79
2023-05-09T13:28:54.297Z,19.71
2023-05-09T13:31:22.803Z,19.61
2023-05-09T13:33:52.071Z,19.58
2023-05-09T13:36:20.657Z,19.62
2023-05-09T13:38:48.803Z,19.80
2023-05-09T13:41:20.865Z,19.80
2023-05-09T13:43:48.822Z,19.65
2023-05-09T13:46:16.779Z,19.57
2023-05-09T13:48:44.886Z,20.00
2023-05-09T13:51:13.965Z,20.02
2023-05-09T13:53:42.531Z,20.15
2023-05-09T13:56:10.694Z,19.80
2023-05-09T13:58:38.644Z,20.06
2023-05-09T14:01:07.651Z,20.21
2023-05-09T14:03:35.835Z,19.89
2023-05-09T14:06:04.361Z,20.14
2023-05-09T14:08:33.134Z,20.17
2023-05-09T14:11:01.615Z,20.09
2023-05-09T14:13:31.852Z,20.12
2023-05-09T14:15:59.857Z,20.34
2023-05-09T14:18:27.890Z,20.41
2023-05-09T14:20:56.386Z,20.28
2023-05-09T14:23:24.451Z,20.28
2023-05-09T14:25:52.392Z,20.13
2023-05-09T14:28:20.264Z,20.41
2023-05-09T14:30:48.202Z,20.50
2023-05-09T14:33:16.007Z,20.82
2023-05-09T14:35:43.908Z,20.89
2023-05-09T14:38:13.180Z,21.04
2023-05-09T14:40:41.048Z,20.98
2023-05-09T14:43:09.587Z,20.92
2023-05-09T14:45:37.651Z,20.80
2023-05-09T14:48:06.262Z,20.31
2023-05-09T14:50:34.190Z,20.06
2023-05-09T14:53:02.104Z,20.26
2023-05-09T14:55:31.246Z,20.20
2023-05-09T14:57:59.420Z,20.14
2023-05-09T15:00:28.488Z,20.05
2023-05-09T15:02:56.904Z,20.11
2023-05-09T15:05:25.235Z,19.77
2023-05-09T15:07:53.056Z,19.67
2023-05-09T15:10:21.016Z,19.78
2023-05-09T15:12:48.911Z,19.88
2023-05-09T15:15:19.939Z,19.61
2023-05-09T15:17:48.069Z,19.77
2023-05-09T15:20:18.311Z,19.66
2023-05-09T15:22:50.176Z,19.64
2023-05-09T15:25:18.187Z,19.53
2023-05-09T15:27:46.247Z,19.57
2023-05-09T15:30:14.534Z,19.50
2023-05-09T15:32:42.904Z,19.55
2023-05-09T15:35:10.843Z,19.40
2023-05-09T15:37:38.656Z,19.38
2023-05-09T15:40:07.948Z,19.55
2023-05-09T15:42:36.458Z,19.38
2023-05-09T15:45:04.529Z,19.42
2023-05-09T15:47:32.827Z,19.40
2023-05-09T15:50:00.910Z,19.32
2023-05-09T15:52:29.176Z,19.20
2023-05-09T15:54:57.434Z,19.45
2023-05-09T15:57:25.815Z,19.29
2023-05-09T15:59:56.165Z,19.09
2023-05-09T16:02:24.721Z,19.20
2023-05-09T16:04:52.703Z,18.85
2023-05-09T16:07:20.730Z,19.06
2023-05-09T16:09:49.198Z,19.06
2023-05-09T16:12:17.405Z,19.07
2023-05-09T16:14:45.477Z,19.04
2023-05-09T16:17:13.456Z,19.31
2023-05-09T16:19:41.383Z,18.99
2023-05-09T16:22:09.306Z,18.90
2023-05-09T16:24:37.709Z,18.76
2023-05-09T16:27:05.804Z,18.93
2023-05-09T16:29:33.620Z,18.99
2023-05-09T16:32:01.926Z,18.95
2023-05-09T16:34:30.033Z,19.12
2023-05-09T16:36:57.868Z,18.71
2023-05-09T16:39:28.014Z,18.70
2023-05-09T16:41:57.261Z,18.60
2023-05-09T16:44:25.870Z,18.76
2023-05-09T16:46:53.894Z,18.65
2023-05-09T16:49:22.040Z,18.55
2023-05-09T16:51:49.950Z,18.71
2023-05-09T16:54:17.832Z,18.47
2023-05-09T16:56:45.699Z,18.51
2023-05-09T16:59:13.578Z,18.48
2023-05-09T17:01:42.409Z,18.31
2023-05-09T17:04:10.396Z,18.55
2023-05-09T17:06:38.452Z,18.59
2023-05-09T17:09:06.387Z,18.35
2023-05-09T17:11:34.485Z,18.29
2023-05-09T17:14:03.347Z,18.42
2023-05-09T17:16:31.322Z,18.56
2023-05-09T17:18:59.234Z,18.48
2023-05-09T17:21:27.152Z,18.36
2023-05-09T17:23:55.306Z,18.22
2023-05-09T17:26:23.202Z,18.36
2023-05-09T17:28:51.408Z,18.21
2023-05-09T17:31:19.292Z,18.22
2023-05-09T17:33:47.189Z,18.09
2023-05-09T17:36:15.053Z,18.18
2023-05-09T17:38:43.216Z,18.06
2023-05-09T17:41:11.058Z,18.03
2023-05-09T17:43:39.380Z,17.95
2023-05-09T17:46:08.062Z,18.05
2023-05-09T17:48:36.008Z,17.99
2023-05-09T17:51:04.098Z,17.82
2023-05-09T17:53:32.422Z,17.84
2023-05-09T17:56:00.308Z,17.86
2023-05-09T17:58:28.226Z,17.71
2023-05-09T18:00:58.564Z,17.68
2023-05-09T18:03:29.433Z,17.61
2023-05-09T18:05:57.833Z,17.46
2023-05-09T18:08:26.423Z,17.54
2023-05-09T18:10:57.389Z,17.62
2023-05-09T18:13:25.395Z,17.55
2023-05-09T18:15:55.104Z,17.46
2023-05-09T18:18:23.104Z,17.40
2023-05-09T18:20:51.012Z,17.41
2023-05-09T18:23:18.899Z,17.21
2023-05-09T18:25:46.866Z,17.24
2023-05-09T18:28:14.994Z,17.16
2023-05-09T18:30:42.831Z,17.19
2023-05-09T18:33:10.639Z,17.13
2023-05-09T18:35:38.536Z,17.22
2023-05-09T18:38:06.436Z,17.24
2023-05-09T18:40:34.325Z,17.05
2023-05-09T18:43:02.244Z,16.98
2023-05-09T18:45:30.815Z,16.99
2023-05-09T18:47:59.075Z,16.92
2023-05-09T18:50:27.155Z,16.85
2023-05-09T18:52:55.321Z,16.79
2023-05-09T18:55:23.308Z,16.78
2023-05-09T18:57:51.236Z,16.77
2023-05-09T19:00:19.140Z,16.71
2023-05-09T19:02:47.064Z,16.74
2023-05-09T19:05:14.913Z,16.72
2023-05-09T19:07:42.746Z,16.57
2023-05-09T19:10:11.210Z,16.52
2023-05-09T19:12:39.120Z,16.51
2023-05-09T19:15:07.646Z,16.53
2023-05-09T19:17:35.566Z,16.55
2023-05-09T19:20:03.995Z,16.53
2023-05-09T19:22:32.212Z,16.41
2023-05-09T19:25:00.180Z,16.41
2023-05-09T19:27:31.200Z,16.29
2023-05-09T19:29:59.500Z,16.34
2023-05-09T19:32:27.388Z,16.34
2023-05-09T19:34:55.244Z,16.28
2023-05-09T19:37:23.387Z,16.21
2023-05-09T19:39:51.245Z,15.95
2023-05-09T19:42:19.172Z,16.13
2023-05-09T19:44:47.342Z,16.08
2023-05-09T19:47:15.182Z,16.02
2023-05-09T19:49:43.085Z,16.15
2023-05-09T19:52:11.132Z,16.03
2023-05-09T19:54:39.043Z,15.99
2023-05-09T19:57:07.096Z,16.05
2023-05-09T19:59:35.045Z,16.01
2023-05-09T20:02:02.983Z,15.93
2023-05-09T20:04:35.010Z,15.88
2023-05-09T20:07:04.027Z,15.84
2023-05-09T20:09:32.967Z,15.99
2023-05-09T20:12:02.857Z,15.87
2023-05-09T20:14:31.784Z,15.81
2023-05-09T20:16:59.748Z,15.78
2023-05-09T20:19:27.869Z,15.73
2023-05-09T20:21:56.004Z,15.79
2023-05-09T20:24:23.968Z,15.70
2023-05-09T20:26:52.149Z,15.73
2023-05-09T20:29:20.058Z,15.83
2023-05-09T20:31:48.106Z,15.80
2023-05-09T20:34:18.009Z,15.67
2023-05-09T20:36:48.457Z,15.77
2023-05-09T20:39:17.749Z,15.76
2023-05-09T20:41:49.573Z,15.67
2023-05-09T20:44:18.067Z,15.66
2023-05-09T20:46:46.283Z,15.60
2023-05-09T20:49:15.455Z,15.54
2023-05-09T20:51:43.314Z,15.48
2023-05-09T20:54:11.198Z,15.49
2023-05-09T20:56:39.158Z,15.59
2023-05-09T20:59:06.999Z,15.55
2023-05-09T21:01:36.902Z,15.51
2023-05-09T21:04:05.895Z,15.51
2023-05-09T21:06:35.992Z,15.50
2023-05-09T21:09:05.459Z,15.52
2023-05-09T21:11:33.348Z,15.52
2023-05-09T21:14:01.223Z,15.49
2023-05-09T21:16:29.546Z,15.39
2023-05-09T21:18:59.629Z,15.40
2023-05-09T21:21:27.494Z,15.39
2023-05-09T21:23:55.404Z,15.23
2023-05-09T21:26:23.310Z,15.35
2023-05-09T21:28:51.148Z,15.35
2023-05-09T21:31:19.075Z,15.31
2023-05-09T21:33:46.946Z,15.25
2023-05-09T21:36:14.833Z,15.19
2023-05-09T21:38:42.748Z,15.30
2023-05-09T21:41:10.608Z,15.16
2023-05-09T21:43:38.692Z,15.18
2023-05-09T21:46:06.659Z,15.21
2023-05-09T21:48:34.610Z,15.12
2023-05-09T21:51:08.306Z,15.14
2023-05-09T21:53:36.314Z,15.08
2023-05-09T21:56:04.543Z,14.96
2023-05-09T21:58:32.460Z,15.13
2023-05-09T22:01:00.313Z,15.03
2023-05-09T22:03:28.230Z,15.04
2023-05-09T22:05:56.275Z,14.98
2023-05-09T22:08:24.136Z,14.96
2023-05-09T22:10:51.977Z,14.82
2023-05-09T22:13:19.977Z,14.78
2023-05-09T22:15:47.819Z,14.72
2023-05-09T22:18:15.627Z,14.91
2023-05-09T22:20:43.626Z,14.77
2023-05-09T22:23:11.496Z,14.92
2023-05-09T22:25:39.355Z,14.81
2023-05-09T22:28:07.218Z,14.88
2023-05-09T22:30:35.093Z,14.89
2023-05-09T22:33:03.038Z,14.87
2023-05-09T22:35:31.017Z,14.80
2023-05-09T22:37:58.851Z,14.78
2023-05-09T22:40:26.869Z,14.77
2023-05-09T22:42:54.925Z,14.74
2023-05-09T22:45:23.121Z,14.69
2023-05-09T22:47:50.994Z,14.68
2023-05-09T22:50:19.065Z,14.62
2023-05-09T22:52:47.089Z,14.67
2023-05-09T22:55:14.991Z,14.63
2023-05-09T22:57:42.898Z,14.60
2023-05-09T23:00:11.715Z,14.65
2023-05-09T23:02:39.711Z,14.64
2023-05-09T23:05:08.770Z,14.73
2023-05-09T23:07:36.678Z,14.69
2023-05-09T23:10:05.001Z,14.61
2023-05-09T23:12:33.102Z,14.59
2023-05-09T23:15:01.069Z,14.50
2023-05-09T23:17:29.059Z,14.60
2023-05-09T23:19:56.934Z,14.62
2023-05-09T23:22:24.751Z,14.53
2023-05-09T23:24:52.544Z,14.51
2023-05-09T23:27:20.400Z,14.58
2023-05-09T23:29:48.718Z,14.56
2023-05-09T23:32:16.733Z,14.55
2023-05-09T23:34:44.553Z,14.50
2023-05-09T23:37:12.611Z,14.53
2023-05-09T23:39:40.763Z,14.51
2023-05-09T23:42:08.681Z,14.52
2023-05-09T23:44:36.562Z,14.52
2023-05-09T23:47:04.421Z,14.46
2023-05-09T23:49:32.277Z,14.49
2023-05-09T23:52:00.130Z,14.48
2023-05-09T23:54:28.668Z,14.43
2023-05-09T23:56:57.327Z,14.32
2023-05-09T23:59:25.265Z,14.40
